createdAt,value
2023-01-08T00:01:16.044Z,20.60
2023-01-08T00:03:43.470Z,20.60
2023-01-08T00:06:15.660Z,20.60
2023-01-08T00:08:43.295Z,20.60
2023-01-08T00:11:11.057Z,20.60
2023-01-08T00:13:38.394Z,20.60
2023-01-08T00:16:17.029Z,20.60
2023-01-08T00:18:45.160Z,20.60
2023-01-08T00:21:12.498Z,20.60
2023-01-08T00:23:39.986Z,20.50
2023-01-08T00:26:08.384Z,20.60
2023-01-08T00:28:36.100Z,20.60
2023-01-08T00:31:06.561Z,20.60
2023-01-08T00:33:34.221Z,20.50
2023-01-08T00:36:06.423Z,20.50
2023-01-08T00:38:33.720Z,20.50
2023-01-08T00:41:01.094Z,20.50
2023-01-08T00:43:28.418Z,20.50
2023-01-08T00:45:55.793Z,20.50
2023-01-08T00:48:23.244Z,20.50
2023-01-08T00:50:50.783Z,20.50
2023-01-08T00:53:19.043Z,20.50
2023-01-08T00:55:46.286Z,20.50
2023-01-08T00:58:14.083Z,20.50
2023-01-08T01:00:41.497Z,20.50
2023-01-08T01:03:08.922Z,20.40
2023-01-08T01:05:36.255Z,20.40
2023-01-08T01:08:03.597Z,20.40
2023-01-08T01:10:30.897Z,20.40
2023-01-08T01:12:58.208Z,20.40
2023-01-08T01:15:25.874Z,20.40
2023-01-08T01:17:53.139Z,20.40
2023-01-08T01:20:20.661Z,20.40
2023-01-08T01:22:47.942Z,20.40
2023-01-08T01:25:15.267Z,20.40
2023-01-08T01:27:42.568Z,20.40
2023-01-08T01:30:11.146Z,20.40
2023-01-08T01:32:38.451Z,20.40
2023-01-08T01:35:06.022Z,20.40
2023-01-08T01:37:33.275Z,20.40
2023-01-08T01:40:00.660Z,20.40
2023-01-08T01:42:39.968Z,20.30
2023-01-08T01:45:17.025Z,20.30
2023-01-08T01:47:46.079Z,20.30
2023-01-08T01:50:13.434Z,20.30
2023-01-08T01:52:46.012Z,20.30
2023-01-08T01:55:13.799Z,20.30
2023-01-08T01:57:45.354Z,20.30
2023-01-08T02:00:12.894Z,20.30
2023-01-08T02:02:40.088Z,20.30
2023-01-08T02:05:08.655Z,20.20
2023-01-08T02:07:40.595Z,20.20
2023-01-08T02:10:11.826Z,20.20
2023-01-08T02:12:44.179Z,20.20
2023-01-08T02:15:15.453Z,20.20
2023-01-08T02:17:53.317Z,20.20
2023-01-08T02:20:56.486Z,20.20
2023-01-08T02:23:29.766Z,20.20
2023-01-08T02:25:59.856Z,20.20
2023-01-08T02:28:28.019Z,20.20
2023-01-08T02:30:55.746Z,20.10
2023-01-08T02:33:23.669Z,20.10
2023-01-08T02:36:10.190Z,20.10
2023-01-08T02:38:39.698Z,20.10
2023-01-08T02:41:10.268Z,20.20
2023-01-08T02:43:46.842Z,20.20
2023-01-08T02:46:24.504Z,20.10
2023-01-08T02:48:54.775Z,20.10
2023-01-08T02:51:26.813Z,20.10
2023-01-08T02:54:05.247Z,20.10
2023-01-08T02:56:41.706Z,20.10
2023-01-08T02:59:11.065Z,20.10
2023-01-08T03:01:39.316Z,20.10
2023-01-08T03:04:17.819Z,20.10
2023-01-08T03:06:45.449Z,20.10
2023-01-08T03:09:13.277Z,20.10
2023-01-08T03:11:43.957Z,20.00
2023-01-08T03:14:17.322Z,20.00
2023-01-08T03:16:49.247Z,20.00
2023-01-08T03:19:19.623Z,20.00
2023-01-08T03:21:47.624Z,20.00
2023-01-08T03:24:17.336Z,20.00
2023-01-08T03:26:45.649Z,20.00
2023-01-08T03:29:14.713Z,20.00
2023-01-08T03:31:43.037Z,20.00
2023-01-08T03:34:11.103Z,20.00
2023-01-08T03:36:39.920Z,20.00
2023-01-08T03:39:15.460Z,19.90
2023-01-08T03:41:42.887Z,20.00
2023-01-08T03:44:10.149Z,20.00
2023-01-08T03:46:42.626Z,19.90
2023-01-08T03:49:10.500Z,19.90
2023-01-08T03:51:42.526Z,19.90
2023-01-08T03:54:12.940Z,19.90
2023-01-08T03:56:40.294Z,19.90
2023-01-08T03:59:07.708Z,19.90
2023-01-08T04:01:35.403Z,19.90
2023-01-08T04:04:03.073Z,19.90
2023-01-08T04:06:30.414Z,19.90
2023-01-08T04:08:57.736Z,19.90
2023-01-08T04:11:26.619Z,19.90
2023-01-08T04:13:54.623Z,19.90
2023-01-08T04:16:23.018Z,19.80
2023-01-08T04:18:50.353Z,19.80
2023-01-08T04:21:18.779Z,19.80
2023-01-08T04:23:46.085Z,19.80
2023-01-08T04:26:13.405Z,20.20
2023-01-08T04:28:40.699Z,19.80
2023-01-08T04:31:08.586Z,19.80
2023-01-08T04:33:36.154Z,19.80
2023-01-08T04:36:04.153Z,19.80
2023-01-08T04:38:31.488Z,19.80
2023-01-08T04:41:02.821Z,19.80
2023-01-08T04:43:31.009Z,19.80
2023-01-08T04:45:59.328Z,19.70
2023-01-08T04:48:27.354Z,19.70
2023-01-08T04:50:54.943Z,19.70
2023-01-08T04:53:22.231Z,19.70
2023-01-08T04:55:49.496Z,19.70
2023-01-08T04:58:16.794Z,19.70
2023-01-08T05:00:44.247Z,19.70
2023-01-08T05:03:11.594Z,19.70
2023-01-08T05:05:39.159Z,19.70
2023-01-08T05:08:06.439Z,19.70
2023-01-08T05:10:33.753Z,19.70
2023-01-08T05:13:01.238Z,19.70
2023-01-08T05:15:28.996Z,19.70
2023-01-08T05:18:06.639Z,19.60
2023-01-08T05:20:35.232Z,19.60
2023-01-08T05:23:02.574Z,19.60
2023-01-08T05:25:29.876Z,19.60
2023-01-08T05:27:57.202Z,19.60
2023-01-08T05:30:24.529Z,19.60
2023-01-08T05:32:51.811Z,19.60
2023-01-08T05:35:19.153Z,19.60
2023-01-08T05:37:46.472Z,19.60
2023-01-08T05:40:13.811Z,19.60
2023-01-08T05:42:41.108Z,19.60
2023-01-08T05:45:08.774Z,19.60
2023-01-08T05:47:36.024Z,19.60
2023-01-08T05:50:03.476Z,19.60
2023-01-08T05:52:30.759Z,19.60
2023-01-08T05:55:00.263Z,19.60
2023-01-08T05:57:27.599Z,19.60
2023-01-08T05:59:54.999Z,19.50
2023-01-08T06:02:22.336Z,19.50
2023-01-08T06:04:49.647Z,19.50
2023-01-08T06:07:16.921Z,19.50
2023-01-08T06:09:44.219Z,19.50
2023-01-08T06:12:11.491Z,19.60
2023-01-08T06:14:38.772Z,19.50
2023-01-08T06:17:06.074Z,19.50
2023-01-08T06:19:33.347Z,19.60
2023-01-08T06:22:00.709Z,19.50
2023-01-08T06:24:27.949Z,19.50
2023-01-08T06:26:55.197Z,19.50
2023-01-08T06:29:22.482Z,19.50
2023-01-08T06:31:49.886Z,19.50
2023-01-08T06:34:17.129Z,19.50
2023-01-08T06:36:44.361Z,19.50
2023-01-08T06:39:11.641Z,19.50
2023-01-08T06:41:39.947Z,19.50
2023-01-08T06:44:07.265Z,19.50
2023-01-08T06:46:40.267Z,19.50
2023-01-08T06:49:08.163Z,19.50
2023-01-08T06:51:35.977Z,19.40
2023-01-08T06:54:03.609Z,19.40
2023-01-08T06:56:30.935Z,19.40
2023-01-08T06:58:58.217Z,19.40
2023-01-08T07:01:26.723Z,19.40
2023-01-08T07:03:54.177Z,19.40
2023-01-08T07:06:22.138Z,19.40
2023-01-08T07:08:49.784Z,19.40
2023-01-08T07:11:18.157Z,19.40
2023-01-08T07:13:45.440Z,19.40
2023-01-08T07:16:13.842Z,19.40
2023-01-08T07:18:41.169Z,19.40
2023-01-08T07:21:09.597Z,19.40
2023-01-08T07:23:38.452Z,19.40
2023-01-08T07:26:07.105Z,19.30
2023-01-08T07:28:34.642Z,19.30
2023-01-08T07:31:06.076Z,19.40
2023-01-08T07:33:33.643Z,19.30
2023-01-08T07:36:01.269Z,19.30
2023-01-08T07:38:28.601Z,19.30
2023-01-08T07:40:57.687Z,19.30
2023-01-08T07:43:26.392Z,19.30
2023-01-08T07:45:53.699Z,19.30
2023-01-08T07:48:20.972Z,19.30
2023-01-08T07:50:48.426Z,19.30
2023-01-08T07:53:17.449Z,19.30
2023-01-08T07:55:45.091Z,19.30
2023-01-08T07:58:13.631Z,19.20
2023-01-08T08:00:41.215Z,19.20
2023-01-08T08:03:11.611Z,19.20
2023-01-08T08:05:39.100Z,19.20
2023-01-08T08:08:10.778Z,19.20
2023-01-08T08:10:38.844Z,19.20
2023-01-08T08:13:06.475Z,19.20
2023-01-08T08:15:34.004Z,19.20
2023-01-08T08:18:01.308Z,19.20
2023-01-08T08:20:28.846Z,19.10
2023-01-08T08:23:06.869Z,19.10
2023-01-08T08:25:34.551Z,19.20
2023-01-08T08:28:02.373Z,19.10
2023-01-08T08:30:30.741Z,19.10
2023-01-08T08:32:59.191Z,19.10
2023-01-08T08:35:26.655Z,19.10
2023-01-08T08:37:54.342Z,19.10
2023-01-08T08:40:22.754Z,19.10
2023-01-08T08:42:50.126Z,19.10
2023-01-08T08:45:17.493Z,19.10
2023-01-08T08:47:44.733Z,19.00
2023-01-08T08:50:12.095Z,19.10
2023-01-08T08:52:39.452Z,19.10
2023-01-08T08:55:07.192Z,19.10
2023-01-08T08:57:34.468Z,19.00
2023-01-08T09:00:01.801Z,19.00
2023-01-08T09:02:29.269Z,19.00
2023-01-08T09:04:56.696Z,19.00
2023-01-08T09:07:23.996Z,19.00
2023-01-08T09:09:51.435Z,19.00
2023-01-08T09:12:19.053Z,19.00
2023-01-08T09:14:46.380Z,19.00
2023-01-08T09:17:13.700Z,19.00
2023-01-08T09:19:41.062Z,19.00
2023-01-08T09:22:08.392Z,19.00
2023-01-08T09:24:35.667Z,19.00
2023-01-08T09:27:02.954Z,19.00
2023-01-08T09:29:30.224Z,19.00
2023-01-08T09:32:00.437Z,19.00
2023-01-08T09:34:27.821Z,19.10
2023-01-08T09:36:55.175Z,19.10
2023-01-08T09:39:22.591Z,19.20
2023-01-08T09:41:50.560Z,19.20
2023-01-08T09:44:20.806Z,19.30
2023-01-08T09:46:48.704Z,19.30
2023-01-08T09:49:19.682Z,19.40
2023-01-08T09:51:47.116Z,19.40
2023-01-08T09:54:15.687Z,19.40
2023-01-08T09:56:46.759Z,19.50
2023-01-08T09:59:16.772Z,19.50
2023-01-08T10:01:46.052Z,19.60
2023-01-08T10:04:16.632Z,19.60
2023-01-08T10:06:47.190Z,19.70
2023-01-08T10:09:14.940Z,19.80
2023-01-08T10:11:46.463Z,19.90
2023-01-08T10:14:39.599Z,20.00
2023-01-08T10:17:22.181Z,20.00
2023-01-08T10:19:49.439Z,20.10
2023-01-08T10:22:18.039Z,20.10
2023-01-08T10:24:45.611Z,20.20
2023-01-08T10:27:13.993Z,20.20
2023-01-08T10:29:41.585Z,20.30
2023-01-08T10:32:11.274Z,20.30
2023-01-08T10:34:44.699Z,20.40
2023-01-08T10:37:28.481Z,20.40
2023-01-08T10:40:19.188Z,20.50
2023-01-08T10:42:46.871Z,20.50
2023-01-08T10:45:32.955Z,20.60
2023-01-08T10:48:02.363Z,20.70
2023-01-08T10:50:31.045Z,20.80
2023-01-08T10:52:59.924Z,20.80
2023-01-08T10:55:36.214Z,20.90
2023-01-08T10:58:05.394Z,21.00
2023-01-08T11:00:34.391Z,21.00
2023-01-08T11:03:02.955Z,21.10
2023-01-08T11:05:34.410Z,21.30
2023-01-08T11:08:05.828Z,21.30
2023-01-08T11:10:36.910Z,21.50
2023-01-08T11:13:05.950Z,21.50
2023-01-08T11:15:34.979Z,21.60
2023-01-08T11:18:14.435Z,21.60
2023-01-08T11:20:42.895Z,21.70
2023-01-08T11:23:16.387Z,21.70
2023-01-08T11:25:47.628Z,21.80
2023-01-08T11:28:17.103Z,21.80
2023-01-08T11:30:48.691Z,21.90
2023-01-08T11:33:21.503Z,21.90
2023-01-08T11:35:50.296Z,21.90
2023-01-08T11:38:17.610Z,21.90
2023-01-08T11:40:52.383Z,21.90
2023-01-08T11:43:19.701Z,21.90
2023-01-08T11:45:50.177Z,21.90
2023-01-08T11:48:35.425Z,21.90
2023-01-08T11:51:16.013Z,21.90
2023-01-08T11:53:46.727Z,21.90
2023-01-08T11:56:33.348Z,21.90
2023-01-08T11:59:06.639Z,21.80
2023-01-08T12:01:40.594Z,21.80
2023-01-08T12:04:29.165Z,21.80
2023-01-08T12:07:01.764Z,21.80
2023-01-08T12:09:29.294Z,21.70
2023-01-08T12:12:00.603Z,21.80
2023-01-08T12:14:41.919Z,21.70
2023-01-08T12:17:11.991Z,21.70
2023-01-08T12:19:45.527Z,21.70
2023-01-08T12:22:32.457Z,21.70
2023-01-08T12:25:12.117Z,21.70
2023-01-08T12:27:56.833Z,21.70
2023-01-08T12:30:29.479Z,21.70
2023-01-08T12:33:25.994Z,21.60
2023-01-08T12:35:54.716Z,21.60
2023-01-08T12:38:26.299Z,21.60
2023-01-08T12:40:56.548Z,21.60
2023-01-08T12:43:42.660Z,21.50
2023-01-08T12:46:11.685Z,21.50
2023-01-08T12:48:39.489Z,21.40
2023-01-08T12:51:25.515Z,21.40
2023-01-08T12:54:11.498Z,21.40
2023-01-08T12:56:58.700Z,21.30
2023-01-08T12:59:38.202Z,21.30
2023-01-08T13:02:24.889Z,21.30
2023-01-08T13:04:52.293Z,21.30
2023-01-08T13:07:33.528Z,21.20
2023-01-08T13:10:06.880Z,21.20
2023-01-08T13:12:39.491Z,21.20
2023-01-08T13:15:07.822Z,21.20
2023-01-08T13:17:37.431Z,21.20
2023-01-08T13:20:06.950Z,21.10
2023-01-08T13:22:35.553Z,21.10
2023-01-08T13:25:18.237Z,21.10
2023-01-08T13:27:46.391Z,21.10
2023-01-08T13:30:33.209Z,21.00
2023-01-08T13:33:00.870Z,21.00
2023-01-08T13:35:32.086Z,21.00
2023-01-08T13:38:19.638Z,21.00
2023-01-08T13:40:50.086Z,21.00
2023-01-08T13:43:24.308Z,21.00
2023-01-08T13:46:00.505Z,21.00
2023-01-08T13:48:32.655Z,21.00
2023-01-08T13:51:00.141Z,20.90
2023-01-08T13:53:27.495Z,20.90
2023-01-08T13:55:59.381Z,20.90
2023-01-08T13:58:35.920Z,20.90
2023-01-08T14:01:03.794Z,20.90
2023-01-08T14:03:31.405Z,20.90
2023-01-08T14:06:06.322Z,20.80
2023-01-08T14:08:33.863Z,20.90
2023-01-08T14:11:03.280Z,20.80
2023-01-08T14:13:32.064Z,20.80
2023-01-08T14:16:01.687Z,20.80
2023-01-08T14:18:29.282Z,20.80
2023-01-08T14:20:59.123Z,20.80
2023-01-08T14:23:32.274Z,20.80
2023-01-08T14:26:02.345Z,20.70
2023-01-08T14:28:29.646Z,20.80
2023-01-08T14:30:57.438Z,20.70
2023-01-08T14:33:35.266Z,20.70
2023-01-08T14:36:02.966Z,20.70
2023-01-08T14:38:30.310Z,20.70
2023-01-08T14:41:00.294Z,20.70
2023-01-08T14:43:27.775Z,20.70
2023-01-08T14:45:55.353Z,20.70
2023-01-08T14:48:22.693Z,20.70
2023-01-08T14:51:09.034Z,20.60
2023-01-08T14:53:44.433Z,20.60
2023-01-08T14:56:16.783Z,20.60
2023-01-08T14:58:45.128Z,20.60
2023-01-08T15:01:20.273Z,20.70
2023-01-08T15:03:48.424Z,20.60
2023-01-08T15:06:29.613Z,20.70
2023-01-08T15:08:57.551Z,20.70
2023-01-08T15:11:33.061Z,20.70
2023-01-08T15:14:00.834Z,20.70
2023-01-08T15:16:28.747Z,20.70
2023-01-08T15:19:12.862Z,20.70
2023-01-08T15:21:47.843Z,20.70
2023-01-08T15:24:35.370Z,20.60
2023-01-08T15:27:12.689Z,20.70
2023-01-08T15:29:41.103Z,20.60
2023-01-08T15:32:10.054Z,20.60
2023-01-08T15:34:37.347Z,20.60
2023-01-08T15:37:05.686Z,20.60
2023-01-08T15:39:36.892Z,20.60
2023-01-08T15:42:49.116Z,20.60
2023-01-08T15:45:23.587Z,20.60
2023-01-08T15:47:50.895Z,20.60
2023-01-08T15:50:20.620Z,20.60
2023-01-08T15:52:48.055Z,20.50
2023-01-08T15:55:17.426Z,20.50
2023-01-08T15:57:48.578Z,20.60
2023-01-08T16:00:17.538Z,20.60
2023-01-08T16:02:47.062Z,20.60
2023-01-08T16:05:15.396Z,20.50
2023-01-08T16:07:42.709Z,20.50
2023-01-08T16:10:10.540Z,20.50
2023-01-08T16:12:37.791Z,20.50
2023-01-08T16:15:08.179Z,20.50
2023-01-08T16:17:36.904Z,20.50
2023-01-08T16:20:05.057Z,20.50
2023-01-08T16:22:32.314Z,20.50
2023-01-08T16:24:59.635Z,20.50
2023-01-08T16:27:29.204Z,20.40
2023-01-08T16:29:56.502Z,20.40
2023-01-08T16:32:25.430Z,20.40
2023-01-08T16:34:55.050Z,20.40
2023-01-08T16:37:22.724Z,20.40
2023-01-08T16:39:50.133Z,20.30
2023-01-08T16:42:17.412Z,20.30
2023-01-08T16:44:44.758Z,20.30
2023-01-08T16:47:12.065Z,20.30
2023-01-08T16:49:41.568Z,20.30
2023-01-08T16:52:09.827Z,20.30
2023-01-08T16:54:37.642Z,20.30
2023-01-08T16:57:05.180Z,20.30
2023-01-08T16:59:33.227Z,20.30
2023-01-08T17:02:00.725Z,20.20
2023-01-08T17:04:31.416Z,20.20
2023-01-08T17:06:58.779Z,20.20
2023-01-08T17:09:26.063Z,20.20
2023-01-08T17:11:53.551Z,20.20
2023-01-08T17:14:20.945Z,20.20
2023-01-08T17:16:49.267Z,20.10
2023-01-08T17:19:17.680Z,20.10
2023-01-08T17:21:46.113Z,20.10
2023-01-08T17:24:13.465Z,20.10
2023-01-08T17:26:40.766Z,20.20
2023-01-08T17:29:08.131Z,20.20
2023-01-08T17:31:40.319Z,20.20
2023-01-08T17:34:08.648Z,20.20
2023-01-08T17:36:36.388Z,20.20
2023-01-08T17:39:04.023Z,20.20
2023-01-08T17:41:50.036Z,20.20
2023-01-08T17:44:17.353Z,20.20
2023-01-08T17:46:47.513Z,20.20
2023-01-08T17:49:15.719Z,20.10
2023-01-08T17:51:43.380Z,20.20
2023-01-08T17:54:11.459Z,20.10
2023-01-08T17:56:38.797Z,20.10
2023-01-08T17:59:06.505Z,20.20
2023-01-08T18:01:35.360Z,20.10
2023-01-08T18:04:04.203Z,20.10
2023-01-08T18:06:31.472Z,20.10
2023-01-08T18:08:58.822Z,20.10
2023-01-08T18:11:26.949Z,20.10
2023-01-08T18:13:57.914Z,20.10
2023-01-08T18:16:25.835Z,20.10
2023-01-08T18:18:56.161Z,20.10
2023-01-08T18:21:26.026Z,20.20
2023-01-08T18:23:53.637Z,20.10
2023-01-08T18:26:21.195Z,20.10
2023-01-08T18:28:48.495Z,20.10
2023-01-08T18:31:15.901Z,20.10
2023-01-08T18:33:43.437Z,20.10
2023-01-08T18:36:12.852Z,20.10
2023-01-08T18:38:41.097Z,20.10
2023-01-08T18:41:09.242Z,20.10
2023-01-08T18:43:36.773Z,20.10
2023-01-08T18:46:05.722Z,20.10
2023-01-08T18:48:33.387Z,20.10
2023-01-08T18:51:07.718Z,20.10
2023-01-08T18:53:35.053Z,20.10
2023-01-08T18:56:02.337Z,20.10
2023-01-08T18:58:30.013Z,20.10
2023-01-08T19:01:02.518Z,20.10
2023-01-08T19:03:29.844Z,20.10
2023-01-08T19:05:57.198Z,20.10
2023-01-08T19:08:24.896Z,20.10
2023-01-08T19:10:52.431Z,20.10
2023-01-08T19:13:21.423Z,20.10
2023-01-08T19:15:48.704Z,20.00
2023-01-08T19:18:15.992Z,20.10
2023-01-08T19:20:46.366Z,20.10
2023-01-08T19:23:15.418Z,20.00
2023-01-08T19:25:45.889Z,20.00
2023-01-08T19:28:13.374Z,20.10
2023-01-08T19:30:42.502Z,20.10
2023-01-08T19:33:09.849Z,20.10
2023-01-08T19:35:40.614Z,20.10
2023-01-08T19:38:08.188Z,20.10
2023-01-08T19:40:35.592Z,20.10
2023-01-08T19:43:21.027Z,20.10
2023-01-08T19:45:48.446Z,20.10
2023-01-08T19:48:15.832Z,20.10
2023-01-08T19:50:43.782Z,20.10
2023-01-08T19:53:12.801Z,20.10
2023-01-08T19:55:41.388Z,20.10
2023-01-08T19:58:08.735Z,20.10
2023-01-08T20:00:39.394Z,20.10
2023-01-08T20:03:07.531Z,20.10
2023-01-08T20:05:34.872Z,20.10
2023-01-08T20:08:02.361Z,20.10
2023-01-08T20:10:30.849Z,20.10
2023-01-08T20:12:58.153Z,20.10
2023-01-08T20:15:28.275Z,20.10
2023-01-08T20:17:56.621Z,20.10
2023-01-08T20:20:24.024Z,20.10
2023-01-08T20:22:51.275Z,20.10
2023-01-08T20:25:18.619Z,20.10
2023-01-08T20:27:45.886Z,20.10
2023-01-08T20:30:14.743Z,20.10
2023-01-08T20:32:42.221Z,20.10
2023-01-08T20:35:09.621Z,20.10
2023-01-08T20:37:36.890Z,20.10
2023-01-08T20:40:04.322Z,20.10
2023-01-08T20:42:33.949Z,20.10
2023-01-08T20:45:02.047Z,20.10
2023-01-08T20:47:29.355Z,20.10
2023-01-08T20:49:57.781Z,20.10
2023-01-08T20:52:25.046Z,20.10
2023-01-08T20:54:53.202Z,20.10
2023-01-08T20:57:20.498Z,20.10
2023-01-08T20:59:47.861Z,20.10
2023-01-08T21:02:15.198Z,20.10
2023-01-08T21:04:43.922Z,20.10
2023-01-08T21:07:11.223Z,20.20
2023-01-08T21:09:40.335Z,20.10
2023-01-08T21:12:08.303Z,20.10
2023-01-08T21:14:35.640Z,20.10
2023-01-08T21:17:02.939Z,20.10
2023-01-08T21:19:30.225Z,20.10
2023-01-08T21:21:57.554Z,20.10
2023-01-08T21:24:24.848Z,20.10
2023-01-08T21:26:52.139Z,20.10
2023-01-08T21:29:21.073Z,20.10
2023-01-08T21:31:48.786Z,20.10
2023-01-08T21:34:16.128Z,20.10
2023-01-08T21:36:43.405Z,20.10
2023-01-08T21:39:11.193Z,20.10
2023-01-08T21:41:56.887Z,20.10
2023-01-08T21:44:44.423Z,20.10
2023-01-08T21:47:16.713Z,20.10
2023-01-08T21:49:44.306Z,20.10
2023-01-08T21:52:30.280Z,20.00
2023-01-08T21:54:58.386Z,20.00
2023-01-08T21:57:28.207Z,20.00
2023-01-08T21:59:55.730Z,20.00
2023-01-08T22:02:24.386Z,20.00
2023-01-08T22:04:53.881Z,20.00
2023-01-08T22:07:21.148Z,20.00
2023-01-08T22:09:48.572Z,19.90
2023-01-08T22:12:16.271Z,19.90
2023-01-08T22:14:43.651Z,19.90
2023-01-08T22:17:11.118Z,19.90
2023-01-08T22:19:38.787Z,19.90
2023-01-08T22:22:08.172Z,19.90
2023-01-08T22:24:36.860Z,19.90
2023-01-08T22:27:04.152Z,19.90
2023-01-08T22:29:31.549Z,19.80
2023-01-08T22:31:58.861Z,19.80
2023-01-08T22:34:26.169Z,19.80
2023-01-08T22:36:53.517Z,19.80
2023-01-08T22:39:20.798Z,19.80
2023-01-08T22:41:49.156Z,19.80
2023-01-08T22:44:16.470Z,19.80
2023-01-08T22:46:45.647Z,19.80
2023-01-08T22:49:13.545Z,19.70
2023-01-08T22:51:44.688Z,19.70
2023-01-08T22:54:13.002Z,19.70
2023-01-08T22:56:40.576Z,19.70
2023-01-08T22:59:07.860Z,19.70
2023-01-08T23:01:35.360Z,19.70
2023-01-08T23:04:02.856Z,19.70
2023-01-08T23:06:31.003Z,19.70
2023-01-08T23:08:58.484Z,19.60
2023-01-08T23:11:26.360Z,19.60
2023-01-08T23:13:53.667Z,19.60
2023-01-08T23:16:24.452Z,19.60
2023-01-08T23:18:52.920Z,19.60
2023-01-08T23:21:22.085Z,19.60
2023-01-08T23:23:50.090Z,19.60
2023-01-08T23:26:28.113Z,19.60
2023-01-08T23:28:56.921Z,19.50
2023-01-08T23:31:27.353Z,19.60
2023-01-08T23:33:54.791Z,19.50
2023-01-08T23:36:22.504Z,19.50
2023-01-08T23:38:52.979Z,19.50
2023-01-08T23:41:21.291Z,19.50
2023-01-08T23:43:49.388Z,19.50
2023-01-08T23:46:17.007Z,19.50
2023-01-08T23:48:44.385Z,19.50
2023-01-08T23:51:12.766Z,19.50
2023-01-08T23:53:40.005Z,19.40
2023-01-08T23:56:07.795Z,19.40
2023-01-08T23:58:35.523Z,19.40
